Time;durP1;ratioP1;P1;durP2;ratioP2;P2;SDS_P1;SDS_P2;PMS_P1;PMS_P2;Temp;Humidity;BMP_temperature;BMP_pressure;BME280_temperature;BME280_humidity;BME280_pressure;Samples;Min_cycle;Max_cycle;Signal;HPM_P1;HPM_P2
2021/06/16 00:00:08;;;;;;;2.20;1.50;;;25.30;47.30;;;;;;5006129;28;20638;-52
2021/06/16 00:02:34;;;;;;;3.40;1.88;;;25.30;47.40;;;;;;5006381;28;20479;-49
2021/06/16 00:05:00;;;;;;;2.08;1.30;;;25.30;47.40;;;;;;5004221;28;20032;-49
2021/06/16 00:07:25;;;;;;;2.40;1.42;;;25.30;47.40;;;;;;5009008;28;20026;-53
2021/06/16 00:09:51;;;;;;;2.17;1.35;;;25.30;47.40;;;;;;5005626;28;20105;-49
2021/06/16 00:12:17;;;;;;;1.88;1.40;;;25.30;47.50;;;;;;5006206;28;20038;-50
2021/06/16 00:14:42;;;;;;;2.08;1.55;;;25.40;47.50;;;;;;5006355;28;20025;-47
2021/06/16 00:17:08;;;;;;;2.35;1.58;;;25.30;47.50;;;;;;5002283;28;20033;-51
2021/06/16 00:19:35;;;;;;;3.08;1.52;;;25.30;47.50;;;;;;5011085;28;20510;-50
2021/06/16 00:22:01;;;;;;;2.42;1.52;;;25.30;47.50;;;;;;5011919;28;20100;-49
2021/06/16 00:24:27;;;;;;;2.58;1.50;;;25.40;47.60;;;;;;5012495;28;20038;-49
2021/06/16 00:26:53;;;;;;;2.67;1.73;;;25.40;47.60;;;;;;5011437;28;20033;-48
2021/06/16 00:29:18;;;;;;;3.38;1.90;;;25.40;47.60;;;;;;5012922;28;20036;-50
2021/06/16 00:31:44;;;;;;;2.97;1.67;;;25.40;47.60;;;;;;5012187;28;20030;-44
2021/06/16 00:34:10;;;;;;;3.33;1.73;;;25.40;47.70;;;;;;5013213;28;20442;-50
2021/06/16 00:36:35;;;;;;;2.13;1.65;;;25.30;47.60;;;;;;5012505;28;20029;-49
2021/06/16 00:39:03;;;;;;;2.67;1.67;;;25.30;47.70;;;;;;5011253;28;20410;-50
2021/06/16 00:41:29;;;;;;;3.03;1.80;;;25.30;47.70;;;;;;5012946;28;20026;-51
2021/06/16 00:43:55;;;;;;;2.45;1.80;;;25.30;47.80;;;;;;5011252;28;20479;-51
2021/06/16 00:46:20;;;;;;;1.70;1.50;;;25.30;47.80;;;;;;5012835;28;20060;-47
2021/06/16 00:48:46;;;;;;;2.88;1.63;;;25.30;47.90;;;;;;5011053;28;20084;-51
2021/06/16 00:51:11;;;;;;;2.45;1.60;;;25.30;47.90;;;;;;5012589;28;20060;-50
2021/06/16 00:53:37;;;;;;;4.75;1.75;;;25.30;48.00;;;;;;5012006;28;20088;-49
2021/06/16 00:56:03;;;;;;;2.45;1.90;;;25.30;48.00;;;;;;5011280;28;20411;-50
2021/06/16 00:58:29;;;;;;;3.15;1.63;;;25.30;48.10;;;;;;5011544;28;20045;-47
2021/06/16 01:01:03;;;;;;;2.28;1.50;;;25.30;48.10;;;;;;5011876;28;20072;-50
2021/06/16 01:03:52;;;;;;;1.98;1.63;;;25.30;48.10;;;;;;5012855;28;20041;-49
2021/06/16 01:06:21;;;;;;;2.63;2.10;;;25.30;48.20;;;;;;5005654;28;20033;-53
2021/06/16 01:09:10;;;;;;;2.15;1.58;;;25.30;48.20;;;;;;5010109;28;20025;-54
2021/06/16 01:11:56;;;;;;;2.90;1.73;;;25.30;48.20;;;;;;5009543;28;20125;-51
2021/06/16 01:14:50;;;;;;;2.55;1.58;;;25.30;48.30;;;;;;5006171;28;20037;-55
2021/06/16 01:17:28;;;;;;;2.13;1.55;;;25.30;48.20;;;;;;5009459;28;20033;-54
2021/06/16 01:19:57;;;;;;;3.53;2.10;;;25.30;48.30;;;;;;5011088;28;20034;-51
2021/06/16 01:22:36;;;;;;;4.32;2.03;;;25.30;48.30;;;;;;5008362;28;20030;-55
2021/06/16 01:25:07;;;;;;;2.28;1.85;;;25.30;48.40;;;;;;5010846;28;20384;-54
2021/06/16 01:27:34;;;;;;;3.35;1.98;;;25.30;48.40;;;;;;5012206;28;20037;-53
2021/06/16 01:30:01;;;;;;;4.32;2.00;;;25.30;48.50;;;;;;5011114;28;20109;-51
2021/06/16 01:32:27;;;;;;;2.15;1.77;;;25.20;48.40;;;;;;5011716;28;20053;-50
2021/06/16 01:34:53;;;;;;;2.58;1.88;;;25.30;48.50;;;;;;5010627;28;20026;-54
2021/06/16 01:37:19;;;;;;;3.70;2.03;;;25.30;48.60;;;;;;5011547;28;20505;-48
2021/06/16 01:39:46;;;;;;;2.13;1.80;;;25.20;48.50;;;;;;5011681;28;20545;-47
2021/06/16 01:42:22;;;;;;;3.78;2.08;;;25.20;48.50;;;;;;5010945;28;20041;-51
2021/06/16 01:44:51;;;;;;;2.83;2.08;;;25.20;48.60;;;;;;5011180;28;20108;-46
2021/06/16 01:47:21;;;;;;;1.88;1.65;;;25.20;48.60;;;;;;5010966;28;20532;-52
2021/06/16 01:49:48;;;;;;;2.90;1.52;;;25.20;48.60;;;;;;5011197;28;20030;-50
2021/06/16 01:52:16;;;;;;;2.58;1.90;;;25.20;48.60;;;;;;5010641;28;20065;-51
2021/06/16 01:54:42;;;;;;;2.80;2.00;;;25.20;48.70;;;;;;5011337;28;20022;-48
2021/06/16 01:57:08;;;;;;;2.70;2.10;;;25.20;48.70;;;;;;5010563;28;20488;-50
2021/06/16 01:59:39;;;;;;;3.03;1.63;;;25.20;48.80;;;;;;5011341;28;20491;-50
2021/06/16 02:02:05;;;;;;;3.55;1.85;;;25.20;48.70;;;;;;5014273;28;20379;-53
2021/06/16 02:04:32;;;;;;;4.30;2.00;;;25.20;48.80;;;;;;5015536;28;20033;-48
2021/06/16 02:07:08;;;;;;;4.57;2.08;;;25.20;48.80;;;;;;5012157;28;20068;-52
2021/06/16 02:09:37;;;;;;;2.72;1.75;;;25.20;48.80;;;;;;5013151;28;20040;-54
2021/06/16 02:12:07;;;;;;;3.25;1.83;;;25.20;48.80;;;;;;5014311;28;20025;-53
2021/06/16 02:14:34;;;;;;;3.47;1.83;;;25.20;48.90;;;;;;5015420;28;20041;-52
2021/06/16 02:17:09;;;;;;;3.47;2.10;;;25.20;48.90;;;;;;5014499;28;20033;-53
2021/06/16 02:19:37;;;;;;;2.80;1.90;;;25.20;48.90;;;;;;5014930;28;20099;-53
2021/06/16 02:22:06;;;;;;;3.65;2.08;;;25.20;49.00;;;;;;5013590;28;20394;-56
2021/06/16 02:24:32;;;;;;;3.55;1.95;;;25.20;49.00;;;;;;5014982;28;20050;-51
2021/06/16 02:26:57;;;;;;;2.15;1.92;;;25.20;49.10;;;;;;5014001;28;20554;-54
2021/06/16 02:29:26;;;;;;;2.55;1.58;;;25.20;49.80;;;;;;5015236;28;20113;-50
2021/06/16 02:31:51;;;;;;;3.22;2.03;;;25.20;49.10;;;;;;5013908;28;20526;-52
2021/06/16 02:34:19;;;;;;;4.13;1.77;;;25.20;49.20;;;;;;5014578;28;20105;-51
2021/06/16 02:36:47;;;;;;;3.10;1.70;;;25.20;49.20;;;;;;5014572;28;20047;-50
2021/06/16 02:39:21;;;;;;;3.75;1.90;;;25.20;49.20;;;;;;5013992;28;20026;-55
2021/06/16 02:41:48;;;;;;;5.13;2.35;;;25.20;49.20;;;;;;5014678;28;20060;-51
2021/06/16 02:44:15;;;;;;;2.65;1.90;;;25.10;49.20;;;;;;5006600;28;20041;-52
2021/06/16 02:46:43;;;;;;;3.15;2.00;;;25.10;49.20;;;;;;5007613;28;20018;-51
2021/06/16 02:49:13;;;;;;;3.10;1.92;;;25.20;49.30;;;;;;5006317;28;20096;-50
2021/06/16 02:51:40;;;;;;;2.97;1.63;;;25.10;49.30;;;;;;5005131;28;20069;-50
2021/06/16 02:54:11;;;;;;;2.92;2.00;;;25.10;49.30;;;;;;5008412;28;20046;-53
2021/06/16 02:56:42;;;;;;;3.65;1.70;;;25.10;49.30;;;;;;5011464;28;20076;-55
2021/06/16 02:59:10;;;;;;;4.28;1.80;;;25.20;49.40;;;;;;5009722;28;20308;-49
2021/06/16 03:01:37;;;;;;;4.10;2.00;;;25.10;49.40;;;;;;5006824;28;20472;-50
2021/06/16 03:04:04;;;;;;;2.50;1.83;;;25.10;49.40;;;;;;5002712;28;20479;-52
2021/06/16 03:06:30;;;;;;;3.72;2.08;;;25.10;49.40;;;;;;5008038;28;20129;-49
2021/06/16 03:08:57;;;;;;;2.55;1.77;;;25.10;49.50;;;;;;5009299;28;20030;-52
2021/06/16 03:11:24;;;;;;;3.05;2.30;;;25.10;49.60;;;;;;5007081;28;20195;-50
2021/06/16 03:13:50;;;;;;;4.13;2.17;;;25.10;49.60;;;;;;5008839;28;20371;-51
2021/06/16 03:16:17;;;;;;;3.90;1.92;;;25.10;49.50;;;;;;5004688;28;20036;-52
2021/06/16 03:18:45;;;;;;;2.58;1.80;;;25.10;49.50;;;;;;5013412;28;20026;-50
2021/06/16 03:21:12;;;;;;;3.05;1.92;;;25.10;49.50;;;;;;5002020;28;20065;-52
2021/06/16 03:23:38;;;;;;;2.38;1.70;;;25.10;49.50;;;;;;5007310;28;20129;-49
2021/06/16 03:26:05;;;;;;;2.65;1.60;;;25.10;49.50;;;;;;5008584;28;20017;-53
2021/06/16 03:28:33;;;;;;;2.28;1.65;;;25.10;49.60;;;;;;5007250;28;20034;-50
2021/06/16 03:31:01;;;;;;;4.22;1.75;;;25.10;49.60;;;;;;5002067;28;20442;-49
2021/06/16 03:33:28;;;;;;;3.30;1.70;;;25.10;49.60;;;;;;5005895;28;20048;-53
2021/06/16 03:35:55;;;;;;;3.13;2.05;;;25.10;49.60;;;;;;5003326;28;20115;-51
2021/06/16 03:38:22;;;;;;;2.58;1.90;;;25.10;49.50;;;;;;5005559;28;21588;-52
2021/06/16 03:40:51;;;;;;;2.60;1.73;;;25.10;49.50;;;;;;5001874;28;20142;-46
2021/06/16 03:43:18;;;;;;;4.22;2.00;;;25.10;49.60;;;;;;5006929;28;20530;-50
2021/06/16 03:45:45;;;;;;;5.88;2.15;;;25.10;49.60;;;;;;5006785;28;20051;-53
2021/06/16 03:48:15;;;;;;;2.70;1.50;;;25.10;49.60;;;;;;5005344;28;20030;-54
2021/06/16 03:50:42;;;;;;;3.20;1.85;;;25.10;49.60;;;;;;5003606;28;20055;-54
2021/06/16 03:53:12;;;;;;;4.43;1.92;;;25.10;49.60;;;;;;5029173;28;20182;-51
2021/06/16 03:55:41;;;;;;;2.45;1.73;;;25.10;49.60;;;;;;5004464;28;20043;-49
2021/06/16 03:58:09;;;;;;;3.00;1.88;;;25.10;49.70;;;;;;5007816;28;20026;-51
2021/06/16 04:00:37;;;;;;;2.65;1.88;;;25.10;49.70;;;;;;5006770;28;20034;-53
2021/06/16 04:03:05;;;;;;;3.42;1.88;;;25.10;49.80;;;;;;5012133;28;20033;-52
2021/06/16 04:05:30;;;;;;;1.95;1.75;;;25.10;49.80;;;;;;5005448;28;20045;-52
2021/06/16 04:07:57;;;;;;;3.78;1.60;;;25.10;49.80;;;;;;5008087;28;20057;-51
2021/06/16 04:10:24;;;;;;;5.10;1.60;;;25.10;49.80;;;;;;5012634;28;20049;-54
2021/06/16 04:12:50;;;;;;;3.35;1.73;;;25.10;49.70;;;;;;5012127;28;20084;-47
2021/06/16 04:15:17;;;;;;;3.35;1.80;;;25.10;49.70;;;;;;5012916;28;20076;-55
2021/06/16 04:17:43;;;;;;;2.30;1.75;;;25.10;49.70;;;;;;5012497;28;20030;-53
2021/06/16 04:20:10;;;;;;;2.50;1.70;;;25.10;49.70;;;;;;5012607;28;20029;-53
2021/06/16 04:22:36;;;;;;;3.50;1.70;;;25.10;49.70;;;;;;5012880;28;20105;-54
2021/06/16 04:25:03;;;;;;;1.80;1.45;;;25.10;49.80;;;;;;5011974;28;20049;-53
2021/06/16 04:27:29;;;;;;;4.43;1.83;;;25.10;49.80;;;;;;5022967;28;20033;-54
2021/06/16 04:29:54;;;;;;;3.45;1.65;;;25.10;49.80;;;;;;5025548;28;20029;-53
2021/06/16 04:32:20;;;;;;;2.78;2.05;;;25.10;49.80;;;;;;5025855;28;20506;-52
2021/06/16 04:34:46;;;;;;;2.25;1.70;;;25.10;50.10;;;;;;5012884;28;20026;-54
2021/06/16 04:37:12;;;;;;;2.10;1.60;;;25.10;49.90;;;;;;5012097;28;20018;-54
2021/06/16 04:39:38;;;;;;;3.78;1.73;;;25.10;49.80;;;;;;5011556;28;20038;-50
2021/06/16 04:42:04;;;;;;;2.85;1.70;;;25.10;49.90;;;;;;5008035;28;20025;-54
2021/06/16 04:44:29;;;;;;;4.03;1.90;;;25.10;49.90;;;;;;5012314;28;20105;-50
2021/06/16 04:46:55;;;;;;;2.60;1.50;;;25.10;49.90;;;;;;5011156;28;20513;-53
2021/06/16 04:49:22;;;;;;;2.92;1.95;;;25.10;49.90;;;;;;5011573;28;20081;-51
2021/06/16 04:51:49;;;;;;;2.92;1.73;;;25.10;49.90;;;;;;5011880;28;20507;-48
2021/06/16 04:54:14;;;;;;;4.30;1.98;;;25.10;50.00;;;;;;5011317;28;20045;-50
2021/06/16 04:56:40;;;;;;;2.78;2.20;;;25.10;50.00;;;;;;5003157;28;20480;-51
2021/06/16 04:59:07;;;;;;;2.58;1.98;;;25.10;50.00;;;;;;5010219;28;20438;-47
2021/06/16 05:01:35;;;;;;;2.83;1.75;;;25.10;50.00;;;;;;5007682;28;20083;-50
2021/06/16 05:04:01;;;;;;;4.82;1.90;;;25.10;50.00;;;;;;5002537;28;20057;-49
2021/06/16 05:06:27;;;;;;;2.85;1.83;;;25.10;50.00;;;;;;5007699;28;20046;-53
2021/06/16 05:08:53;;;;;;;2.47;1.98;;;25.10;50.70;;;;;;5003101;28;20030;-48
2021/06/16 05:11:18;;;;;;;2.33;1.70;;;25.10;50.10;;;;;;5007016;28;20034;-51
2021/06/16 05:13:44;;;;;;;3.95;2.08;;;25.10;50.10;;;;;;5003855;28;20034;-53
2021/06/16 05:16:10;;;;;;;4.65;2.25;;;25.10;50.10;;;;;;5003460;28;20235;-52
2021/06/16 05:18:35;;;;;;;3.17;2.20;;;25.10;50.20;;;;;;5003162;28;20152;-54
2021/06/16 05:21:01;;;;;;;2.20;1.73;;;25.10;50.20;;;;;;4998259;28;20049;-51
2021/06/16 05:23:30;;;;;;;3.38;1.80;;;25.10;50.20;;;;;;5006418;28;20077;-53
2021/06/16 05:25:56;;;;;;;2.83;2.20;;;25.10;50.20;;;;;;5006513;28;20030;-52
2021/06/16 05:28:22;;;;;;;3.85;2.13;;;25.10;50.30;;;;;;5002521;28;20487;-50
2021/06/16 05:30:48;;;;;;;2.95;2.08;;;25.10;50.90;;;;;;5008641;28;20032;-52
2021/06/16 05:33:14;;;;;;;3.58;2.63;;;25.10;50.40;;;;;;5010870;28;20365;-54
2021/06/16 05:35:40;;;;;;;4.72;2.15;;;25.10;50.30;;;;;;5011198;28;20033;-50
2021/06/16 05:38:06;;;;;;;2.78;2.40;;;25.10;50.30;;;;;;5009915;28;20034;-54
2021/06/16 05:40:31;;;;;;;3.03;1.90;;;25.10;50.40;;;;;;5010607;28;20061;-50
2021/06/16 05:42:57;;;;;;;2.42;1.63;;;25.10;50.50;;;;;;5011507;28;20039;-50
2021/06/16 05:45:23;;;;;;;4.03;2.15;;;25.10;50.40;;;;;;5014649;28;20447;-47
2021/06/16 05:47:49;;;;;;;2.60;1.70;;;25.10;50.40;;;;;;5012075;28;20029;-49
2021/06/16 05:50:15;;;;;;;4.65;1.75;;;25.10;50.50;;;;;;5010933;28;20032;-49
2021/06/16 05:52:40;;;;;;;5.72;2.00;;;25.10;50.50;;;;;;5010740;28;20406;-55
2021/06/16 05:55:06;;;;;;;3.85;2.05;;;25.10;50.50;;;;;;5010609;28;20491;-53
2021/06/16 05:57:32;;;;;;;4.60;1.77;;;25.10;50.40;;;;;;5010599;28;20073;-52
2021/06/16 05:59:58;;;;;;;4.80;2.05;;;25.10;50.50;;;;;;5002461;28;20137;-51
2021/06/16 06:02:23;;;;;;;3.38;2.30;;;25.10;50.50;;;;;;5010644;28;20026;-49
2021/06/16 06:04:49;;;;;;;3.67;2.10;;;25.10;50.40;;;;;;5011022;28;20022;-52
2021/06/16 06:07:15;;;;;;;7.70;2.10;;;25.10;50.50;;;;;;5009314;28;20030;-50
2021/06/16 06:09:41;;;;;;;5.47;1.98;;;25.20;50.70;;;;;;5009921;28;20391;-49
2021/06/16 06:12:07;;;;;;;7.35;2.40;;;25.20;51.00;;;;;;5010509;28;20029;-50
2021/06/16 06:14:33;;;;;;;5.60;2.40;;;25.20;51.20;;;;;;5010960;28;20026;-56
2021/06/16 06:16:58;;;;;;;4.60;2.97;;;25.00;51.30;;;;;;5010701;28;20026;-49
2021/06/16 06:19:24;;;;;;;6.35;2.95;;;24.60;52.10;;;;;;5010899;28;20144;-50
2021/06/16 06:21:50;;;;;;;4.55;3.17;;;24.50;52.70;;;;;;5011053;28;20319;-46
2021/06/16 06:24:15;;;;;;;5.85;2.97;;;24.60;52.20;;;;;;5010277;28;20042;-50
2021/06/16 06:26:41;;;;;;;6.28;2.97;;;24.70;52.00;;;;;;5006931;28;20483;-50
2021/06/16 06:29:06;;;;;;;6.75;2.80;;;24.80;51.80;;;;;;5011696;28;20034;-49
2021/06/16 06:31:32;;;;;;;3.83;2.42;;;24.90;51.80;;;;;;5011622;28;20033;-48
2021/06/16 06:33:58;;;;;;;5.53;2.60;;;24.80;51.90;;;;;;5010358;28;20487;-50
2021/06/16 06:36:24;;;;;;;9.52;3.22;;;24.90;51.80;;;;;;5010992;28;20025;-50
2021/06/16 06:38:50;;;;;;;6.80;2.85;;;24.80;51.80;;;;;;5010540;28;20029;-49
2021/06/16 06:41:16;;;;;;;6.40;3.05;;;24.80;52.20;;;;;;5009006;28;20153;-49
2021/06/16 06:43:42;;;;;;;5.82;2.92;;;24.70;52.30;;;;;;5010651;28;20443;-49
2021/06/16 06:46:09;;;;;;;4.85;3.05;;;24.70;52.60;;;;;;5009874;28;20062;-49
2021/06/16 06:48:35;;;;;;;5.72;3.15;;;24.70;52.50;;;;;;5014648;28;20106;-48
2021/06/16 06:51:01;;;;;;;6.60;3.47;;;24.60;52.70;;;;;;5012988;28;20034;-47
2021/06/16 06:53:29;;;;;;;7.90;2.70;;;24.70;52.80;;;;;;5014700;28;20042;-48
2021/06/16 06:55:56;;;;;;;7.57;3.28;;;24.60;52.90;;;;;;5014906;28;20025;-44
2021/06/16 06:58:22;;;;;;;7.45;2.90;;;24.70;52.80;;;;;;5020254;28;20109;-46
2021/06/16 07:00:48;;;;;;;7.80;3.20;;;24.70;52.80;;;;;;5013695;28;20109;-50
2021/06/16 07:03:14;;;;;;;8.88;2.90;;;24.70;52.60;;;;;;5014111;28;20033;-51
2021/06/16 07:05:39;;;;;;;7.78;3.40;;;24.80;52.70;;;;;;5013972;28;20033;-50
2021/06/16 07:08:05;;;;;;;7.70;3.83;;;24.70;52.90;;;;;;5013135;28;20348;-52
2021/06/16 07:10:31;;;;;;;6.13;3.13;;;24.80;52.80;;;;;;5013999;28;20109;-50
2021/06/16 07:12:56;;;;;;;10.45;2.83;;;24.80;52.70;;;;;;5013359;28;20038;-45
2021/06/16 07:15:22;;;;;;;5.70;2.90;;;24.80;52.80;;;;;;5011705;28;20628;-49
2021/06/16 07:17:48;;;;;;;9.07;2.90;;;24.80;52.70;;;;;;5013968;28;20042;-49
2021/06/16 07:20:18;;;;;;;7.10;2.92;;;24.80;52.80;;;;;;5012611;28;20034;-48
2021/06/16 07:22:47;;;;;;;9.48;2.88;;;24.80;52.90;;;;;;5013947;28;20042;-48
2021/06/16 07:25:14;;;;;;;6.53;2.60;;;24.80;52.70;;;;;;5012726;28;20030;-50
2021/06/16 07:27:40;;;;;;;5.40;2.75;;;24.80;52.60;;;;;;5013925;28;20101;-51
2021/06/16 07:30:07;;;;;;;6.68;3.55;;;24.90;52.80;;;;;;5012786;28;20026;-48
2021/06/16 07:32:34;;;;;;;5.50;2.85;;;24.90;52.60;;;;;;5013434;28;20050;-47
2021/06/16 07:35:00;;;;;;;4.30;2.92;;;24.90;52.60;;;;;;5012544;28;20060;-47
2021/06/16 07:37:26;;;;;;;8.15;3.25;;;25.00;52.70;;;;;;5012958;28;20022;-47
2021/06/16 07:39:54;;;;;;;8.35;2.90;;;24.90;52.70;;;;;;5013011;28;20026;-48
2021/06/16 07:42:21;;;;;;;4.25;2.97;;;25.00;52.70;;;;;;5013456;28;20026;-47
2021/06/16 07:44:47;;;;;;;6.53;2.80;;;25.00;52.80;;;;;;5016310;28;20033;-44
2021/06/16 07:47:12;;;;;;;6.65;2.90;;;25.00;52.70;;;;;;5025892;28;20459;-49
2021/06/16 07:49:38;;;;;;;8.15;3.45;;;25.00;52.70;;;;;;5017146;28;20034;-48
2021/06/16 07:52:04;;;;;;;4.30;2.70;;;25.00;52.60;;;;;;5012068;28;20410;-49
2021/06/16 07:54:30;;;;;;;8.52;3.28;;;25.00;52.50;;;;;;5013406;28;20038;-46
2021/06/16 07:56:55;;;;;;;7.38;3.03;;;25.00;52.60;;;;;;5016506;28;20026;-44
2021/06/16 07:59:21;;;;;;;5.60;3.10;;;25.00;52.60;;;;;;5011644;28;20022;-46
2021/06/16 08:01:47;;;;;;;7.00;3.92;;;25.00;52.50;;;;;;5013455;28;20034;-48
2021/06/16 08:04:13;;;;;;;5.82;2.80;;;25.10;52.60;;;;;;5012619;28;20028;-47
2021/06/16 08:06:38;;;;;;;6.55;2.75;;;25.10;52.50;;;;;;5012903;28;20044;-50
2021/06/16 08:09:04;;;;;;;5.43;2.55;;;25.10;52.50;;;;;;5012344;28;20105;-47
2021/06/16 08:11:30;;;;;;;8.05;2.83;;;25.10;52.40;;;;;;5013273;28;20033;-46
2021/06/16 08:13:56;;;;;;;6.63;2.65;;;25.10;52.40;;;;;;5012977;28;20033;-45
2021/06/16 08:16:22;;;;;;;7.57;2.80;;;25.10;52.30;;;;;;5012205;28;20041;-44
2021/06/16 08:18:50;;;;;;;5.38;2.67;;;25.10;52.20;;;;;;5012900;28;20399;-48
2021/06/16 08:21:16;;;;;;;5.80;2.45;;;25.10;52.20;;;;;;5012218;28;20030;-46
2021/06/16 08:23:45;;;;;;;6.03;2.47;;;25.10;52.20;;;;;;5012685;28;20372;-46
2021/06/16 08:26:11;;;;;;;6.35;2.97;;;25.10;52.20;;;;;;5012989;28;20113;-48
2021/06/16 08:28:38;;;;;;;4.53;2.63;;;25.20;52.20;;;;;;5009253;28;20113;-46
2021/06/16 08:31:04;;;;;;;7.35;2.53;;;25.20;52.10;;;;;;5011847;28;20036;-48
2021/06/16 08:33:30;;;;;;;3.13;2.33;;;25.20;52.00;;;;;;5012551;28;20494;-50
2021/06/16 08:35:55;;;;;;;4.93;2.63;;;25.20;52.00;;;;;;5012582;28;20037;-51
2021/06/16 08:38:21;;;;;;;7.22;2.63;;;25.20;51.90;;;;;;5011380;28;20026;-47
2021/06/16 08:40:48;;;;;;;4.65;2.30;;;25.20;51.80;;;;;;5020262;28;20498;-49
2021/06/16 08:43:14;;;;;;;3.88;2.00;;;25.30;51.80;;;;;;5023288;28;20045;-48
2021/06/16 08:45:41;;;;;;;4.10;2.40;;;25.30;51.80;;;;;;5012250;28;20049;-48
2021/06/16 08:48:08;;;;;;;5.55;2.67;;;25.30;51.70;;;;;;5012694;28;20022;-49
2021/06/16 08:50:35;;;;;;;3.42;2.30;;;25.30;51.70;;;;;;5011610;28;20113;-50
2021/06/16 08:53:00;;;;;;;7.88;2.67;;;25.30;51.60;;;;;;5011928;28;20053;-47
2021/06/16 08:55:26;;;;;;;6.40;2.50;;;25.30;51.30;;;;;;5012393;28;20033;-49
2021/06/16 08:57:52;;;;;;;7.53;3.13;;;25.40;51.30;;;;;;5029637;28;20459;-50
2021/06/16 09:00:20;;;;;;;4.53;2.40;;;25.40;51.10;;;;;;5020061;28;20057;-50
2021/06/16 09:02:45;;;;;;;5.28;2.17;;;25.40;49.70;;;;;;5011708;28;20044;-51
2021/06/16 09:05:12;;;;;;;3.65;2.33;;;25.50;49.40;;;;;;5012118;28;20014;-49
2021/06/16 09:07:40;;;;;;;5.63;2.03;;;25.50;48.70;;;;;;5004683;28;20037;-50
2021/06/16 09:10:12;;;;;;;3.40;2.05;;;25.50;48.70;;;;;;5011817;28;20091;-47
2021/06/16 09:12:44;;;;;;;5.13;3.17;;;25.50;48.60;;;;;;5010986;28;20042;-47
2021/06/16 09:15:21;;;;;;;5.93;2.00;;;25.50;48.50;;;;;;5012042;28;20392;-50
2021/06/16 09:18:03;;;;;;;4.43;2.28;;;25.50;48.70;;;;;;5010991;28;20037;-47
2021/06/16 09:20:50;;;;;;;5.55;1.90;;;25.50;48.50;;;;;;5007112;28;20387;-47
2021/06/16 09:23:29;;;;;;;3.67;1.80;;;25.50;48.50;;;;;;5010843;28;20045;-51
2021/06/16 09:26:14;;;;;;;4.60;2.35;;;25.50;48.70;;;;;;5012274;28;20543;-47
2021/06/16 09:28:46;;;;;;;7.18;1.95;;;25.50;49.10;;;;;;5012528;28;20772;-51
2021/06/16 09:31:13;;;;;;;;;;;25.50;49.30;;;;;;5012074;28;20029;-50
2021/06/16 09:33:41;;;;;;;3.50;2.05;;;25.60;49.40;;;;;;5010851;28;20280;-50
2021/06/16 09:36:21;;;;;;;4.95;2.15;;;25.60;49.40;;;;;;5011102;28;20076;-49
2021/06/16 09:38:49;;;;;;;10.20;2.53;;;25.60;49.50;;;;;;5011258;28;20033;-50
2021/06/16 09:41:25;;;;;;;5.63;2.20;;;25.50;49.50;;;;;;5011339;28;20022;-46
2021/06/16 09:43:54;;;;;;;4.22;2.05;;;25.60;49.50;;;;;;5011078;28;20092;-48
2021/06/16 09:46:20;;;;;;;5.15;2.42;;;25.60;49.40;;;;;;5011200;28;20479;-47
2021/06/16 09:48:46;;;;;;;3.20;1.83;;;25.60;49.50;;;;;;5010722;28;20038;-48
2021/06/16 09:51:15;;;;;;;3.42;2.45;;;25.60;49.50;;;;;;5011239;28;20429;-49
2021/06/16 09:54:02;;;;;;;6.70;2.83;;;25.60;49.50;;;;;;5010316;28;20034;-53
2021/06/16 09:56:32;;;;;;;6.57;2.00;;;25.70;49.50;;;;;;5009763;28;20030;-50
2021/06/16 09:58:59;;;;;;;5.82;2.22;;;25.70;49.20;;;;;;5011220;28;20125;-48
2021/06/16 10:01:46;;;;;;;18.02;3.28;;;25.70;49.10;;;;;;5010052;28;20030;-44
2021/06/16 10:04:30;;;;;;;8.60;2.50;;;25.70;49.20;;;;;;5010890;28;20037;-50
2021/06/16 10:07:28;;;;;;;8.73;2.10;;;25.70;48.80;;;;;;5002943;28;20034;-49
2021/06/16 10:09:58;;;;;;;6.43;2.20;;;25.80;48.50;;;;;;5011004;28;20030;-52
2021/06/16 10:12:43;;;;;;;3.45;2.03;;;25.80;48.40;;;;;;5010191;28;20026;-45
2021/06/16 10:15:18;;;;;;;6.40;2.33;;;25.80;48.00;;;;;;5010993;28;20540;-50
2021/06/16 10:17:44;;;;;;;3.28;2.30;;;25.90;47.40;;;;;;5010685;28;20606;-56
2021/06/16 10:20:13;;;;;;;8.43;2.20;;;25.90;47.30;;;;;;5011210;28;20037;-49
2021/06/16 10:22:39;;;;;;;4.32;2.15;;;25.80;47.50;;;;;;5012886;28;20030;-50
2021/06/16 10:25:05;;;;;;;5.22;2.55;;;25.80;47.60;;;;;;5014581;28;20348;-47
2021/06/16 10:27:54;;;;;;;10.23;2.78;;;25.70;47.50;;;;;;5013571;28;20034;-49
2021/06/16 10:30:26;;;;;;;3.70;2.00;;;25.70;47.40;;;;;;5010093;28;20030;-50
2021/06/16 10:32:52;;;;;;;8.25;2.88;;;25.70;47.20;;;;;;5014505;28;20451;-48
2021/06/16 10:35:36;;;;;;;10.68;3.78;;;25.70;46.70;;;;;;5014558;28;20030;-48
2021/06/16 10:38:23;;;;;;;4.85;2.55;;;25.70;46.20;;;;;;5008903;28;20030;-52
2021/06/16 10:40:53;;;;;;;6.15;2.88;;;25.70;46.50;;;;;;5014588;28;20018;-52
2021/06/16 10:43:23;;;;;;;5.63;2.47;;;25.70;46.20;;;;;;5014465;28;20049;-49
2021/06/16 10:46:11;;;;;;;4.95;2.38;;;25.80;45.10;;;;;;5014144;28;20097;-50
2021/06/16 10:48:48;;;;;;;4.30;2.25;;;25.80;44.60;;;;;;5013887;28;20030;-49
2021/06/16 10:51:33;;;;;;;3.15;2.40;;;25.80;44.70;;;;;;5014660;28;20149;-54
2021/06/16 10:54:21;;;;;;;5.45;2.10;;;25.80;44.90;;;;;;5013181;28;20040;-52
2021/06/16 10:57:06;;;;;;;4.82;1.95;;;25.80;45.50;;;;;;5014959;28;20036;-52
2021/06/16 10:59:43;;;;;;;4.50;2.20;;;25.80;45.50;;;;;;5013469;28;20041;-51
2021/06/16 11:02:17;;;;;;;4.35;2.15;;;25.70;45.90;;;;;;5014653;28;20026;-53
2021/06/16 11:04:44;;;;;;;3.67;2.20;;;25.80;45.80;;;;;;5013748;28;20065;-52
2021/06/16 11:07:32;;;;;;;5.22;2.20;;;25.80;45.60;;;;;;5022197;28;20030;-50
2021/06/16 11:09:59;;;;;;;5.68;2.47;;;25.90;45.50;;;;;;5013771;28;20034;-52
2021/06/16 11:12:41;;;;;;;3.65;2.20;;;25.80;45.80;;;;;;5013716;28;20117;-46
2021/06/16 11:15:28;;;;;;;3.88;2.30;;;25.80;46.10;;;;;;5013747;28;20061;-52
2021/06/16 11:17:57;;;;;;;3.58;2.08;;;25.80;46.30;;;;;;5014235;28;20088;-53
2021/06/16 11:20:24;;;;;;;7.55;2.88;;;25.80;46.20;;;;;;5006063;28;20030;-54
2021/06/16 11:23:00;;;;;;;5.03;2.40;;;25.70;46.10;;;;;;5013667;28;20061;-53
2021/06/16 11:25:36;;;;;;;6.10;2.40;;;25.80;46.00;;;;;;5013057;28;20027;-46
2021/06/16 11:28:07;;;;;;;4.15;2.28;;;25.80;46.20;;;;;;5018565;28;20463;-54
2021/06/16 11:30:33;;;;;;;6.30;2.20;;;25.80;46.40;;;;;;5012907;28;20025;-52
2021/06/16 11:33:17;;;;;;;5.57;2.40;;;25.80;46.10;;;;;;5013546;28;20372;-50
2021/06/16 11:35:49;;;;;;;4.65;2.30;;;25.90;46.00;;;;;;5013187;28;20034;-50
2021/06/16 11:38:17;;;;;;;4.53;2.55;;;25.90;46.30;;;;;;5013790;28;20054;-50
2021/06/16 11:41:02;;;;;;;2.72;2.15;;;26.00;46.20;;;;;;5012545;28;20073;-53
2021/06/16 11:43:46;;;;;;;5.07;2.50;;;25.90;46.20;;;;;;5012836;28;20041;-46
2021/06/16 11:46:30;;;;;;;5.50;2.22;;;25.90;46.10;;;;;;5013546;28;20026;-48
2021/06/16 11:49:07;;;;;;;3.00;2.13;;;25.90;46.30;;;;;;5013885;28;20404;-49
2021/06/16 11:51:42;;;;;;;5.00;2.20;;;25.90;46.20;;;;;;5012349;28;20141;-51
2021/06/16 11:54:24;;;;;;;3.75;2.38;;;25.90;46.30;;;;;;5013406;28;20052;-48
2021/06/16 11:57:01;;;;;;;4.78;2.15;;;26.00;46.40;;;;;;5018807;28;20056;-51
2021/06/16 11:59:39;;;;;;;4.80;2.25;;;26.00;46.20;;;;;;5008497;28;20092;-45
2021/06/16 12:02:11;;;;;;;3.78;2.35;;;25.90;46.20;;;;;;5013492;28;20029;-50
2021/06/16 12:05:07;;;;;;;3.80;2.72;;;26.00;46.10;;;;;;5012357;28;20041;-50
2021/06/16 12:07:46;;;;;;;4.53;2.25;;;25.90;46.20;;;;;;5012562;28;20026;-51
2021/06/16 12:10:20;;;;;;;2.90;2.20;;;25.90;46.50;;;;;;5012834;28;20037;-51
2021/06/16 12:12:48;;;;;;;2.75;2.10;;;25.80;46.90;;;;;;5012195;28;20681;-52
2021/06/16 12:15:20;;;;;;;3.83;2.30;;;25.80;47.10;;;;;;5013464;28;20026;-51
2021/06/16 12:18:16;;;;;;;3.90;2.45;;;25.90;47.10;;;;;;5012756;28;20030;-50
2021/06/16 12:20:43;;;;;;;4.05;2.10;;;26.00;46.10;;;;;;4987953;28;20479;-52
2021/06/16 12:23:29;;;;;;;3.92;2.50;;;26.10;45.60;;;;;;5010574;28;20058;-49
2021/06/16 12:26:14;;;;;;;3.90;2.22;;;26.00;45.10;;;;;;5013467;28;20423;-51
2021/06/16 12:28:47;;;;;;;5.28;2.08;;;26.00;45.20;;;;;;5014084;28;20033;-49
2021/06/16 12:31:22;;;;;;;2.72;2.13;;;26.00;45.50;;;;;;5012105;28;20497;-49
2021/06/16 12:36:28;;;;;;;2.78;1.95;;;25.90;45.70;;;;;;5009352;28;20034;-45
2021/06/16 12:39:06;;;;;;;4.63;2.50;;;26.00;45.60;;;;;;5010512;28;20431;-50
2021/06/16 12:41:37;;;;;;;3.60;2.22;;;26.00;45.70;;;;;;5011726;28;20153;-50
2021/06/16 12:44:17;;;;;;;3.13;2.03;;;26.00;45.70;;;;;;5012650;28;20056;-49
2021/06/16 12:47:11;;;;;;;3.38;2.38;;;26.00;45.70;;;;;;5011763;28;20160;-50
2021/06/16 12:49:46;;;;;;;2.90;2.30;;;26.00;46.00;;;;;;5011253;28;20042;-47
2021/06/16 12:52:14;;;;;;;3.58;2.30;;;26.00;46.10;;;;;;5012190;28;20069;-49
2021/06/16 12:54:44;;;;;;;5.13;1.80;;;26.00;46.00;;;;;;5011223;28;20038;-53
2021/06/16 12:57:15;;;;;;;3.78;2.10;;;26.00;45.60;;;;;;5012709;28;20057;-50
2021/06/16 12:59:45;;;;;;;4.22;2.45;;;26.10;45.20;;;;;;5011174;28;20022;-49
2021/06/16 13:02:13;;;;;;;3.22;2.00;;;26.10;45.10;;;;;;5012203;28;20029;-52